sensor_id;sensor_type;location;lat;lon;timestamp;temperature;humidity
23347;DHT22;36852;45.466;11.066;2022-10-26T00:01:12;20.50;99.90
23347;DHT22;36852;45.466;11.066;2022-10-26T00:03:42;20.50;99.90
23347;DHT22;36852;45.466;11.066;2022-10-26T00:06:16;20.50;99.90
23347;DHT22;36852;45.466;11.066;2022-10-26T00:08:44;20.40;99.90
23347;DHT22;36852;45.466;11.066;2022-10-26T00:11:12;20.40;99.90
23347;DHT22;36852;45.466;11.066;2022-10-26T00:13:40;20.40;99.90
23347;DHT22;36852;45.466;11.066;2022-10-26T00:16:11;20.40;99.90
23347;DHT22;36852;45.466;11.066;2022-10-26T00:18:39;20.30;99.90
23347;DHT22;36852;45.466;11.066;2022-10-26T00:21:10;20.30;99.90
23347;DHT22;36852;45.466;11.066;2022-10-26T00:23:38;20.30;99.90
23347;DHT22;36852;45.466;11.066;2022-10-26T00:26:07;20.30;99.90
23347;DHT22;36852;45.466;11.066;2022-10-26T00:28:35;20.30;99.90
23347;DHT22;36852;45.466;11.066;2022-10-26T00:31:05;20.20;99.90
23347;DHT22;36852;45.466;11.066;2022-10-26T00:33:34;20.20;99.90
23347;DHT22;36852;45.466;11.066;2022-10-26T00:36:08;20.20;99.90
23347;DHT22;36852;45.466;11.066;2022-10-26T00:38:36;20.20;99.90
23347;DHT22;36852;45.466;11.066;2022-10-26T00:41:04;20.20;99.90
23347;DHT22;36852;45.466;11.066;2022-10-26T00:43:34;20.10;99.90
23347;DHT22;36852;45.466;11.066;2022-10-26T00:46:04;20.10;99.90
23347;DHT22;36852;45.466;11.066;2022-10-26T00:48:43;20.10;99.90
23347;DHT22;36852;45.466;11.066;2022-10-26T00:54:03;20.00;99.90
23347;DHT22;36852;45.466;11.066;2022-10-26T00:56:32;20.00;99.90
23347;DHT22;36852;45.466;11.066;2022-10-26T00:59:03;20.00;99.90
23347;DHT22;36852;45.466;11.066;2022-10-26T01:01:33;19.90;99.90
23347;DHT22;36852;45.466;11.066;2022-10-26T01:04:02;19.90;99.90
23347;DHT22;36852;45.466;11.066;2022-10-26T01:06:32;19.90;99.90
23347;DHT22;36852;45.466;11.066;2022-10-26T01:09:03;19.90;99.90
23347;DHT22;36852;45.466;11.066;2022-10-26T01:11:31;19.90;99.90
23347;DHT22;36852;45.466;11.066;2022-10-26T01:14:00;19.90;99.90
23347;DHT22;36852;45.466;11.066;2022-10-26T01:27:30;19.80;99.90
23347;DHT22;36852;45.466;11.066;2022-10-26T01:36:05;19.70;99.90
23347;DHT22;36852;45.466;11.066;2022-10-26T01:38:37;19.70;99.90
23347;DHT22;36852;45.466;11.066;2022-10-26T01:41:10;19.70;99.90
23347;DHT22;36852;45.466;11.066;2022-10-26T01:43:40;19.70;99.90
23347;DHT22;36852;45.466;11.066;2022-10-26T01:46:09;19.70;99.90
23347;DHT22;36852;45.466;11.066;2022-10-26T01:48:39;19.70;99.90
23347;DHT22;36852;45.466;11.066;2022-10-26T01:51:08;19.70;99.90
23347;DHT22;36852;45.466;11.066;2022-10-26T01:53:43;19.70;99.90
23347;DHT22;36852;45.466;11.066;2022-10-26T01:56:21;19.70;99.90
23347;DHT22;36852;45.466;11.066;2022-10-26T02:13:00;19.50;99.90
23347;DHT22;36852;45.466;11.066;2022-10-26T02:20:54;19.50;99.90
23347;DHT22;36852;45.466;11.066;2022-10-26T02:23:25;19.50;99.90
23347;DHT22;36852;45.466;11.066;2022-10-26T02:25:56;19.50;99.90
23347;DHT22;36852;45.466;11.066;2022-10-26T02:28:31;19.50;99.90
23347;DHT22;36852;45.466;11.066;2022-10-26T02:31:00;19.50;99.90
23347;DHT22;36852;45.466;11.066;2022-10-26T02:33:30;19.50;99.90
23347;DHT22;36852;45.466;11.066;2022-10-26T02:36:02;19.50;99.90
23347;DHT22;36852;45.466;11.066;2022-10-26T02:38:32;19.50;99.90
23347;DHT22;36852;45.466;11.066;2022-10-26T02:41:01;19.50;99.90
23347;DHT22;36852;45.466;11.066;2022-10-26T02:43:34;19.50;99.90
23347;DHT22;36852;45.466;11.066;2022-10-26T02:46:06;19.50;99.90
23347;DHT22;36852;45.466;11.066;2022-10-26T02:48:34;19.50;99.90
23347;DHT22;36852;45.466;11.066;2022-10-26T02:56:27;19.40;99.90
23347;DHT22;36852;45.466;11.066;2022-10-26T02:58:58;19.40;99.90
23347;DHT22;36852;45.466;11.066;2022-10-26T03:01:27;19.40;99.90
23347;DHT22;36852;45.466;11.066;2022-10-26T03:03:58;19.40;99.90
23347;DHT22;36852;45.466;11.066;2022-10-26T03:06:26;19.40;99.90
23347;DHT22;36852;45.466;11.066;2022-10-26T03:08:54;19.40;99.90
23347;DHT22;36852;45.466;11.066;2022-10-26T03:11:21;19.40;99.90
23347;DHT22;36852;45.466;11.066;2022-10-26T03:13:49;19.40;99.90
23347;DHT22;36852;45.466;11.066;2022-10-26T03:16:17;19.40;99.90
23347;DHT22;36852;45.466;11.066;2022-10-26T03:18:45;19.40;99.90
23347;DHT22;36852;45.466;11.066;2022-10-26T03:21:12;19.40;99.90
23347;DHT22;36852;45.466;11.066;2022-10-26T03:23:40;19.40;99.90
23347;DHT22;36852;45.466;11.066;2022-10-26T03:26:08;19.40;99.90
23347;DHT22;36852;45.466;11.066;2022-10-26T03:28:36;19.40;99.90
23347;DHT22;36852;45.466;11.066;2022-10-26T03:31:04;19.40;99.90
23347;DHT22;36852;45.466;11.066;2022-10-26T03:33:35;19.40;99.90
23347;DHT22;36852;45.466;11.066;2022-10-26T03:36:03;19.40;99.90
23347;DHT22;36852;45.466;11.066;2022-10-26T03:38:31;19.40;99.90
23347;DHT22;36852;45.466;11.066;2022-10-26T03:40:59;19.40;99.90
23347;DHT22;36852;45.466;11.066;2022-10-26T03:43:27;19.30;99.90
23347;DHT22;36852;45.466;11.066;2022-10-26T03:45:55;19.30;99.90
23347;DHT22;36852;45.466;11.066;2022-10-26T03:48:23;19.30;99.90
23347;DHT22;36852;45.466;11.066;2022-10-26T03:50:50;19.30;99.90
23347;DHT22;36852;45.466;11.066;2022-10-26T03:53:18;19.30;99.90
23347;DHT22;36852;45.466;11.066;2022-10-26T03:55:47;19.30;99.90
23347;DHT22;36852;45.466;11.066;2022-10-26T03:58:14;19.20;99.90
23347;DHT22;36852;45.466;11.066;2022-10-26T04:00:43;19.20;99.90
23347;DHT22;36852;45.466;11.066;2022-10-26T04:03:11;19.20;99.90
23347;DHT22;36852;45.466;11.066;2022-10-26T04:05:39;19.20;99.90
23347;DHT22;36852;45.466;11.066;2022-10-26T04:08:07;19.20;99.90
23347;DHT22;36852;45.466;11.066;2022-10-26T04:10:35;19.20;99.90
23347;DHT22;36852;45.466;11.066;2022-10-26T04:13:03;19.20;99.90
23347;DHT22;36852;45.466;11.066;2022-10-26T04:15:31;19.20;99.90
23347;DHT22;36852;45.466;11.066;2022-10-26T04:18:00;19.30;99.90
23347;DHT22;36852;45.466;11.066;2022-10-26T04:20:29;19.30;99.90
23347;DHT22;36852;45.466;11.066;2022-10-26T04:22:59;19.30;99.90
23347;DHT22;36852;45.466;11.066;2022-10-26T04:25:28;19.30;99.90
23347;DHT22;36852;45.466;11.066;2022-10-26T04:27:59;19.30;99.90
23347;DHT22;36852;45.466;11.066;2022-10-26T04:30:27;19.30;99.90
23347;DHT22;36852;45.466;11.066;2022-10-26T04:32:55;19.30;99.90
23347;DHT22;36852;45.466;11.066;2022-10-26T04:35:23;19.30;99.90
23347;DHT22;36852;45.466;11.066;2022-10-26T04:37:50;19.30;99.90
23347;DHT22;36852;45.466;11.066;2022-10-26T04:40:20;19.30;99.90
23347;DHT22;36852;45.466;11.066;2022-10-26T04:42:47;19.30;99.90
23347;DHT22;36852;45.466;11.066;2022-10-26T04:45:25;19.30;99.90
23347;DHT22;36852;45.466;11.066;2022-10-26T04:47:58;19.40;99.90
23347;DHT22;36852;45.466;11.066;2022-10-26T04:50:26;19.40;99.90
23347;DHT22;36852;45.466;11.066;2022-10-26T04:52:54;19.30;99.90
23347;DHT22;36852;45.466;11.066;2022-10-26T04:55:22;19.30;99.90
23347;DHT22;36852;45.466;11.066;2022-10-26T04:57:50;19.40;99.90
23347;DHT22;36852;45.466;11.066;2022-10-26T05:00:20;19.40;99.90
23347;DHT22;36852;45.466;11.066;2022-10-26T05:02:49;19.50;99.90
23347;DHT22;36852;45.466;11.066;2022-10-26T05:05:17;19.50;99.90
23347;DHT22;36852;45.466;11.066;2022-10-26T05:07:56;19.50;99.90
23347;DHT22;36852;45.466;11.066;2022-10-26T05:10:18;19.50;99.90
23347;DHT22;36852;45.466;11.066;2022-10-26T05:12:55;19.50;99.90
23347;DHT22;36852;45.466;11.066;2022-10-26T05:15:19;19.50;99.90
23347;DHT22;36852;45.466;11.066;2022-10-26T05:17:55;19.50;99.90
23347;DHT22;36852;45.466;11.066;2022-10-26T05:20:25;19.50;99.90
23347;DHT22;36852;45.466;11.066;2022-10-26T05:22:55;19.50;99.90
23347;DHT22;36852;45.466;11.066;2022-10-26T05:25:23;19.50;99.90
23347;DHT22;36852;45.466;11.066;2022-10-26T05:27:51;19.40;99.90
23347;DHT22;36852;45.466;11.066;2022-10-26T05:30:19;19.40;99.90
23347;DHT22;36852;45.466;11.066;2022-10-26T05:32:52;19.40;99.90
23347;DHT22;36852;45.466;11.066;2022-10-26T05:35:21;19.50;99.90
23347;DHT22;36852;45.466;11.066;2022-10-26T05:37:49;19.50;99.90
23347;DHT22;36852;45.466;11.066;2022-10-26T05:40:17;19.50;99.90
23347;DHT22;36852;45.466;11.066;2022-10-26T05:42:45;19.50;99.90
23347;DHT22;36852;45.466;11.066;2022-10-26T05:45:14;19.60;99.90
23347;DHT22;36852;45.466;11.066;2022-10-26T05:47:43;19.60;99.90
23347;DHT22;36852;45.466;11.066;2022-10-26T05:50:14;19.60;99.90
23347;DHT22;36852;45.466;11.066;2022-10-26T05:52:44;19.60;99.90
23347;DHT22;36852;45.466;11.066;2022-10-26T05:55:16;19.60;99.90
23347;DHT22;36852;45.466;11.066;2022-10-26T05:57:44;19.60;99.90
23347;DHT22;36852;45.466;11.066;2022-10-26T06:00:16;19.60;99.90
23347;DHT22;36852;45.466;11.066;2022-10-26T06:03:33;19.60;99.90
23347;DHT22;36852;45.466;11.066;2022-10-26T06:05:20;19.60;99.90
23347;DHT22;36852;45.466;11.066;2022-10-26T06:07:48;19.60;99.90
23347;DHT22;36852;45.466;11.066;2022-10-26T06:10:17;19.60;99.90
23347;DHT22;36852;45.466;11.066;2022-10-26T06:12:47;19.60;99.90
23347;DHT22;36852;45.466;11.066;2022-10-26T06:15:18;19.60;99.90
23347;DHT22;36852;45.466;11.066;2022-10-26T06:17:54;19.60;99.90
23347;DHT22;36852;45.466;11.066;2022-10-26T06:20:50;19.60;99.90
23347;DHT22;36852;45.466;11.066;2022-10-26T06:23:38;19.60;99.90
23347;DHT22;36852;45.466;11.066;2022-10-26T06:32:07;19.60;99.90
23347;DHT22;36852;45.466;11.066;2022-10-26T06:34:38;19.60;99.90
23347;DHT22;36852;45.466;11.066;2022-10-26T06:37:07;19.60;99.90
23347;DHT22;36852;45.466;11.066;2022-10-26T06:39:38;19.70;99.90
23347;DHT22;36852;45.466;11.066;2022-10-26T06:42:09;19.70;99.90
23347;DHT22;36852;45.466;11.066;2022-10-26T06:44:38;19.70;99.90
23347;DHT22;36852;45.466;11.066;2022-10-26T06:47:36;19.70;99.90
23347;DHT22;36852;45.466;11.066;2022-10-26T06:50:32;19.70;99.90
23347;DHT22;36852;45.466;11.066;2022-10-26T06:55:41;19.80;99.90
23347;DHT22;36852;45.466;11.066;2022-10-26T06:58:16;19.80;99.90
23347;DHT22;36852;45.466;11.066;2022-10-26T07:00:46;19.80;99.90
23347;DHT22;36852;45.466;11.066;2022-10-26T07:03:16;19.80;99.90
23347;DHT22;36852;45.466;11.066;2022-10-26T07:05:43;19.70;99.90
23347;DHT22;36852;45.466;11.066;2022-10-26T07:08:12;19.80;99.90
23347;DHT22;36852;45.466;11.066;2022-10-26T07:10:41;19.80;99.90
23347;DHT22;36852;45.466;11.066;2022-10-26T07:13:10;19.80;99.90
23347;DHT22;36852;45.466;11.066;2022-10-26T07:15:39;19.80;99.90
23347;DHT22;36852;45.466;11.066;2022-10-26T07:18:08;19.80;99.90
23347;DHT22;36852;45.466;11.066;2022-10-26T07:20:37;19.90;99.90
23347;DHT22;36852;45.466;11.066;2022-10-26T07:23:06;19.90;99.90
23347;DHT22;36852;45.466;11.066;2022-10-26T07:25:34;19.90;99.90
23347;DHT22;36852;45.466;11.066;2022-10-26T07:28:08;19.90;99.90
23347;DHT22;36852;45.466;11.066;2022-10-26T07:30:37;20.00;99.90
23347;DHT22;36852;45.466;11.066;2022-10-26T07:33:10;20.00;99.90
23347;DHT22;36852;45.466;11.066;2022-10-26T07:35:40;20.00;99.90
23347;DHT22;36852;45.466;11.066;2022-10-26T07:38:07;20.00;99.90
23347;DHT22;36852;45.466;11.066;2022-10-26T07:40:36;20.10;99.90
23347;DHT22;36852;45.466;11.066;2022-10-26T07:43:04;20.10;99.90
23347;DHT22;36852;45.466;11.066;2022-10-26T07:45:32;20.10;99.90
23347;DHT22;36852;45.466;11.066;2022-10-26T07:48:00;20.10;99.90
23347;DHT22;36852;45.466;11.066;2022-10-26T07:50:28;20.20;99.90
23347;DHT22;36852;45.466;11.066;2022-10-26T07:52:57;20.20;99.90
23347;DHT22;36852;45.466;11.066;2022-10-26T07:55:26;20.30;99.90
23347;DHT22;36852;45.466;11.066;2022-10-26T07:57:55;20.30;99.90
23347;DHT22;36852;45.466;11.066;2022-10-26T08:00:23;20.30;99.90
23347;DHT22;36852;45.466;11.066;2022-10-26T08:02:52;20.30;99.90
23347;DHT22;36852;45.466;11.066;2022-10-26T08:05:20;20.30;99.90
23347;DHT22;36852;45.466;11.066;2022-10-26T08:07:48;20.40;99.90
23347;DHT22;36852;45.466;11.066;2022-10-26T08:10:16;20.40;99.90
23347;DHT22;36852;45.466;11.066;2022-10-26T08:12:44;20.40;99.90
23347;DHT22;36852;45.466;11.066;2022-10-26T08:15:12;20.40;99.90
23347;DHT22;36852;45.466;11.066;2022-10-26T08:17:40;20.40;99.90
23347;DHT22;36852;45.466;11.066;2022-10-26T08:20:08;20.40;99.90
23347;DHT22;36852;45.466;11.066;2022-10-26T08:22:36;20.40;99.90
23347;DHT22;36852;45.466;11.066;2022-10-26T08:25:04;20.40;99.90
23347;DHT22;36852;45.466;11.066;2022-10-26T08:27:32;20.40;99.90
23347;DHT22;36852;45.466;11.066;2022-10-26T08:30:02;20.30;99.90
23347;DHT22;36852;45.466;11.066;2022-10-26T08:32:32;20.30;99.90
23347;DHT22;36852;45.466;11.066;2022-10-26T08:35:00;20.40;99.90
23347;DHT22;36852;45.466;11.066;2022-10-26T08:37:28;20.40;99.90
23347;DHT22;36852;45.466;11.066;2022-10-26T08:39:56;20.40;99.90
23347;DHT22;36852;45.466;11.066;2022-10-26T08:42:37;20.40;99.90
23347;DHT22;36852;45.466;11.066;2022-10-26T08:45:09;20.40;99.90
23347;DHT22;36852;45.466;11.066;2022-10-26T08:47:42;20.40;99.90
23347;DHT22;36852;45.466;11.066;2022-10-26T08:52:56;20.50;99.90
23347;DHT22;36852;45.466;11.066;2022-10-26T08:55:28;20.60;99.90
23347;DHT22;36852;45.466;11.066;2022-10-26T08:57:59;20.60;99.90
23347;DHT22;36852;45.466;11.066;2022-10-26T09:00:31;20.70;99.90
23347;DHT22;36852;45.466;11.066;2022-10-26T09:02:58;20.70;99.90
23347;DHT22;36852;45.466;11.066;2022-10-26T09:05:31;20.70;99.90
23347;DHT22;36852;45.466;11.066;2022-10-26T09:11:19;20.70;99.90
23347;DHT22;36852;45.466;11.066;2022-10-26T09:16:56;20.80;99.90
23347;DHT22;36852;45.466;11.066;2022-10-26T09:24:50;21.00;99.90
23347;DHT22;36852;45.466;11.066;2022-10-26T09:27:29;21.00;99.90
23347;DHT22;36852;45.466;11.066;2022-10-26T09:30:11;21.10;99.90
23347;DHT22;36852;45.466;11.066;2022-10-26T09:32:36;21.10;99.90
23347;DHT22;36852;45.466;11.066;2022-10-26T09:35:28;21.10;99.90
23347;DHT22;36852;45.466;11.066;2022-10-26T09:37:57;21.10;99.90
23347;DHT22;36852;45.466;11.066;2022-10-26T09:45:37;21.20;99.90
23347;DHT22;36852;45.466;11.066;2022-10-26T09:48:16;21.20;99.90
23347;DHT22;36852;45.466;11.066;2022-10-26T09:50:46;21.20;99.90
23347;DHT22;36852;45.466;11.066;2022-10-26T09:53:15;21.30;99.90
23347;DHT22;36852;45.466;11.066;2022-10-26T09:55:46;21.30;99.90
23347;DHT22;36852;45.466;11.066;2022-10-26T09:58:17;21.30;99.90
23347;DHT22;36852;45.466;11.066;2022-10-26T10:00:45;21.30;99.90
23347;DHT22;36852;45.466;11.066;2022-10-26T10:03:24;21.40;99.90
23347;DHT22;36852;45.466;11.066;2022-10-26T10:05:53;21.40;99.90
23347;DHT22;36852;45.466;11.066;2022-10-26T10:08:22;21.50;99.90
23347;DHT22;36852;45.466;11.066;2022-10-26T10:11:05;21.50;99.90
23347;DHT22;36852;45.466;11.066;2022-10-26T10:13:30;21.60;99.90
23347;DHT22;36852;45.466;11.066;2022-10-26T10:18:35;21.70;99.90
23347;DHT22;36852;45.466;11.066;2022-10-26T10:21:05;21.70;99.90
23347;DHT22;36852;45.466;11.066;2022-10-26T10:23:35;21.90;99.90
23347;DHT22;36852;45.466;11.066;2022-10-26T10:26:08;21.90;99.90
23347;DHT22;36852;45.466;11.066;2022-10-26T10:28:40;21.90;99.90
23347;DHT22;36852;45.466;11.066;2022-10-26T10:31:20;22.00;99.90
23347;DHT22;36852;45.466;11.066;2022-10-26T10:33:48;22.00;99.90
23347;DHT22;36852;45.466;11.066;2022-10-26T10:36:18;22.10;99.90
23347;DHT22;36852;45.466;11.066;2022-10-26T10:38:48;22.20;99.90
23347;DHT22;36852;45.466;11.066;2022-10-26T10:41:31;22.20;99.90
23347;DHT22;36852;45.466;11.066;2022-10-26T10:46:35;22.30;99.90
23347;DHT22;36852;45.466;11.066;2022-10-26T10:49:06;22.40;99.90
23347;DHT22;36852;45.466;11.066;2022-10-26T10:51:44;22.50;99.90
23347;DHT22;36852;45.466;11.066;2022-10-26T10:56:56;22.70;99.90
23347;DHT22;36852;45.466;11.066;2022-10-26T11:08:38;23.00;99.90
23347;DHT22;36852;45.466;11.066;2022-10-26T11:16:30;23.20;99.90
23347;DHT22;36852;45.466;11.066;2022-10-26T11:19:11;23.30;99.90
23347;DHT22;36852;45.466;11.066;2022-10-26T11:21:36;23.20;99.90
23347;DHT22;36852;45.466;11.066;2022-10-26T11:24:17;23.10;99.90
23347;DHT22;36852;45.466;11.066;2022-10-26T11:32:20;23.30;99.90
23347;DHT22;36852;45.466;11.066;2022-10-26T11:34:57;23.50;99.90
23347;DHT22;36852;45.466;11.066;2022-10-26T11:37:43;23.60;99.90
23347;DHT22;36852;45.466;11.066;2022-10-26T11:40:18;23.70;99.90
23347;DHT22;36852;45.466;11.066;2022-10-26T11:42:44;23.80;99.90
23347;DHT22;36852;45.466;11.066;2022-10-26T11:45:27;23.90;99.90
23347;DHT22;36852;45.466;11.066;2022-10-26T11:50:47;23.60;99.90
23347;DHT22;36852;45.466;11.066;2022-10-26T11:53:18;23.70;99.90
23347;DHT22;36852;45.466;11.066;2022-10-26T11:55:53;23.80;99.90
23347;DHT22;36852;45.466;11.066;2022-10-26T11:58:23;23.90;99.90
23347;DHT22;36852;45.466;11.066;2022-10-26T12:00:54;23.90;99.90
23347;DHT22;36852;45.466;11.066;2022-10-26T12:03:29;23.90;99.90
23347;DHT22;36852;45.466;11.066;2022-10-26T12:05:57;24.10;99.90
23347;DHT22;36852;45.466;11.066;2022-10-26T12:08:42;24.20;99.90
23347;DHT22;36852;45.466;11.066;2022-10-26T12:11:34;24.40;99.90
23347;DHT22;36852;45.466;11.066;2022-10-26T12:14:13;24.60;99.90
23347;DHT22;36852;45.466;11.066;2022-10-26T12:19:32;24.70;99.90
23347;DHT22;36852;45.466;11.066;2022-10-26T12:22:01;24.80;99.90
23347;DHT22;36852;45.466;11.066;2022-10-26T12:24:30;24.60;99.90
23347;DHT22;36852;45.466;11.066;2022-10-26T12:27:24;24.40;99.90
23347;DHT22;36852;45.466;11.066;2022-10-26T12:29:46;24.40;99.90
23347;DHT22;36852;45.466;11.066;2022-10-26T12:35:00;24.30;99.90
23347;DHT22;36852;45.466;11.066;2022-10-26T12:37:34;24.40;99.90
23347;DHT22;36852;45.466;11.066;2022-10-26T12:42:51;24.60;99.90
23347;DHT22;36852;45.466;11.066;2022-10-26T12:45:23;24.50;99.90
23347;DHT22;36852;45.466;11.066;2022-10-26T12:48:23;24.70;99.90
23347;DHT22;36852;45.466;11.066;2022-10-26T12:50:52;24.90;99.90
23347;DHT22;36852;45.466;11.066;2022-10-26T12:53:21;24.60;99.90
23347;DHT22;36852;45.466;11.066;2022-10-26T12:56:04;24.40;99.90
23347;DHT22;36852;45.466;11.066;2022-10-26T13:09:30;25.00;99.90
23347;DHT22;36852;45.466;11.066;2022-10-26T13:12:01;25.20;99.90
23347;DHT22;36852;45.466;11.066;2022-10-26T13:14:48;25.50;99.90
23347;DHT22;36852;45.466;11.066;2022-10-26T13:17:20;25.70;99.90
23347;DHT22;36852;45.466;11.066;2022-10-26T13:19:44;26.00;99.90
23347;DHT22;36852;45.466;11.066;2022-10-26T13:22:15;26.30;99.90
23347;DHT22;36852;45.466;11.066;2022-10-26T13:27:23;26.70;99.90
23347;DHT22;36852;45.466;11.066;2022-10-26T13:32:40;27.40;99.90
23347;DHT22;36852;45.466;11.066;2022-10-26T13:35:11;27.70;99.90
23347;DHT22;36852;45.466;11.066;2022-10-26T13:37:43;27.70;99.90
23347;DHT22;36852;45.466;11.066;2022-10-26T13:40:16;27.30;99.90
23347;DHT22;36852;45.466;11.066;2022-10-26T13:42:50;27.30;99.90
23347;DHT22;36852;45.466;11.066;2022-10-26T13:45:30;27.40;99.90
23347;DHT22;36852;45.466;11.066;2022-10-26T13:48:02;27.50;99.90
23347;DHT22;36852;45.466;11.066;2022-10-26T13:50:34;27.80;99.90
23347;DHT22;36852;45.466;11.066;2022-10-26T13:55:52;28.00;99.10
23347;DHT22;36852;45.466;11.066;2022-10-26T13:58:38;28.40;98.30
23347;DHT22;36852;45.466;11.066;2022-10-26T14:01:14;28.80;97.40
23347;DHT22;36852;45.466;11.066;2022-10-26T14:03:42;29.50;95.90
23347;DHT22;36852;45.466;11.066;2022-10-26T14:08:48;30.60;93.50
23347;DHT22;36852;45.466;11.066;2022-10-26T14:11:23;30.70;92.10
23347;DHT22;36852;45.466;11.066;2022-10-26T14:13:51;30.70;91.60
23347;DHT22;36852;45.466;11.066;2022-10-26T14:16:19;31.10;91.00
23347;DHT22;36852;45.466;11.066;2022-10-26T14:18:48;31.90;90.20
23347;DHT22;36852;45.466;11.066;2022-10-26T14:21:18;32.70;86.40
23347;DHT22;36852;45.466;11.066;2022-10-26T14:26:27;33.70;77.80
23347;DHT22;36852;45.466;11.066;2022-10-26T14:28:59;33.80;76.70
23347;DHT22;36852;45.466;11.066;2022-10-26T14:31:29;34.00;75.50
23347;DHT22;36852;45.466;11.066;2022-10-26T14:33:58;34.20;73.40
23347;DHT22;36852;45.466;11.066;2022-10-26T14:39:17;34.10;72.60
23347;DHT22;36852;45.466;11.066;2022-10-26T14:41:44;34.30;71.90
23347;DHT22;36852;45.466;11.066;2022-10-26T14:44:15;34.40;70.60
23347;DHT22;36852;45.466;11.066;2022-10-26T14:46:45;34.50;69.60
23347;DHT22;36852;45.466;11.066;2022-10-26T14:49:25;34.60;70.00
23347;DHT22;36852;45.466;11.066;2022-10-26T14:52:04;34.20;69.40
23347;DHT22;36852;45.466;11.066;2022-10-26T14:54:32;34.10;69.10
23347;DHT22;36852;45.466;11.066;2022-10-26T14:57:00;33.80;68.60
23347;DHT22;36852;45.466;11.066;2022-10-26T14:59:30;33.50;69.70
23347;DHT22;36852;45.466;11.066;2022-10-26T15:04:41;33.10;70.30
23347;DHT22;36852;45.466;11.066;2022-10-26T15:07:16;33.00;71.00
23347;DHT22;36852;45.466;11.066;2022-10-26T15:09:51;32.30;71.70
23347;DHT22;36852;45.466;11.066;2022-10-26T15:17:55;32.30;73.40
23347;DHT22;36852;45.466;11.066;2022-10-26T15:20:27;32.10;74.20
23347;DHT22;36852;45.466;11.066;2022-10-26T15:23:01;31.80;74.40
23347;DHT22;36852;45.466;11.066;2022-10-26T15:25:29;31.50;75.00
23347;DHT22;36852;45.466;11.066;2022-10-26T15:28:30;31.10;76.70
23347;DHT22;36852;45.466;11.066;2022-10-26T15:33:38;30.20;79.90
23347;DHT22;36852;45.466;11.066;2022-10-26T15:36:14;29.70;81.60
23347;DHT22;36852;45.466;11.066;2022-10-26T15:38:43;29.40;83.70
23347;DHT22;36852;45.466;11.066;2022-10-26T15:44:02;29.00;86.20
23347;DHT22;36852;45.466;11.066;2022-10-26T15:46:34;28.70;87.80
23347;DHT22;36852;45.466;11.066;2022-10-26T15:49:05;28.50;88.60
23347;DHT22;36852;45.466;11.066;2022-10-26T15:51:33;28.10;90.10
23347;DHT22;36852;45.466;11.066;2022-10-26T15:54:03;27.90;91.00
23347;DHT22;36852;45.466;11.066;2022-10-26T15:56:31;27.60;92.10
23347;DHT22;36852;45.466;11.066;2022-10-26T15:58:58;27.30;93.00
23347;DHT22;36852;45.466;11.066;2022-10-26T16:01:27;27.10;94.20
23347;DHT22;36852;45.466;11.066;2022-10-26T16:03:55;26.90;95.50
23347;DHT22;36852;45.466;11.066;2022-10-26T16:06:28;26.60;96.90
23347;DHT22;36852;45.466;11.066;2022-10-26T16:08:59;26.40;98.40
23347;DHT22;36852;45.466;11.066;2022-10-26T16:11:27;26.10;99.80
23347;DHT22;36852;45.466;11.066;2022-10-26T16:13:56;25.90;99.90
23347;DHT22;36852;45.466;11.066;2022-10-26T16:16:28;25.70;99.90
23347;DHT22;36852;45.466;11.066;2022-10-26T16:18:56;25.50;99.90
23347;DHT22;36852;45.466;11.066;2022-10-26T16:21:25;25.30;99.90
23347;DHT22;36852;45.466;11.066;2022-10-26T16:23:55;25.20;99.90
23347;DHT22;36852;45.466;11.066;2022-10-26T16:26:23;25.00;99.90
23347;DHT22;36852;45.466;11.066;2022-10-26T16:28:51;24.90;99.90
23347;DHT22;36852;45.466;11.066;2022-10-26T16:31:19;24.80;99.90
23347;DHT22;36852;45.466;11.066;2022-10-26T16:33:47;24.70;99.90
23347;DHT22;36852;45.466;11.066;2022-10-26T16:36:15;24.50;99.90
23347;DHT22;36852;45.466;11.066;2022-10-26T16:38:43;24.40;99.90
23347;DHT22;36852;45.466;11.066;2022-10-26T16:41:12;24.30;99.90
23347;DHT22;36852;45.466;11.066;2022-10-26T16:43:42;24.20;99.90
23347;DHT22;36852;45.466;11.066;2022-10-26T16:46:14;24.10;99.90
23347;DHT22;36852;45.466;11.066;2022-10-26T16:48:44;24.00;99.90
23347;DHT22;36852;45.466;11.066;2022-10-26T16:51:15;23.90;99.90
23347;DHT22;36852;45.466;11.066;2022-10-26T16:53:49;23.80;99.90
23347;DHT22;36852;45.466;11.066;2022-10-26T16:56:19;23.70;99.90
23347;DHT22;36852;45.466;11.066;2022-10-26T16:58:48;23.60;99.90
23347;DHT22;36852;45.466;11.066;2022-10-26T17:01:18;23.60;99.90
23347;DHT22;36852;45.466;11.066;2022-10-26T17:03:49;23.50;99.90
23347;DHT22;36852;45.466;11.066;2022-10-26T17:06:17;23.50;99.90
23347;DHT22;36852;45.466;11.066;2022-10-26T17:08:45;23.40;99.90
23347;DHT22;36852;45.466;11.066;2022-10-26T17:11:15;23.30;99.90
23347;DHT22;36852;45.466;11.066;2022-10-26T17:13:43;23.30;99.90
23347;DHT22;36852;45.466;11.066;2022-10-26T17:16:17;23.20;99.90
23347;DHT22;36852;45.466;11.066;2022-10-26T17:18:46;23.10;99.90
23347;DHT22;36852;45.466;11.066;2022-10-26T17:21:15;23.10;99.90
23347;DHT22;36852;45.466;11.066;2022-10-26T17:23:43;23.00;99.90
23347;DHT22;36852;45.466;11.066;2022-10-26T17:26:12;23.00;99.90
23347;DHT22;36852;45.466;11.066;2022-10-26T17:28:40;22.90;99.90
23347;DHT22;36852;45.466;11.066;2022-10-26T17:31:14;22.80;99.90
23347;DHT22;36852;45.466;11.066;2022-10-26T17:33:43;22.80;99.90
23347;DHT22;36852;45.466;11.066;2022-10-26T17:36:12;22.80;99.90
23347;DHT22;36852;45.466;11.066;2022-10-26T17:38:40;22.70;99.90
23347;DHT22;36852;45.466;11.066;2022-10-26T17:41:12;22.70;99.90
23347;DHT22;36852;45.466;11.066;2022-10-26T17:43:42;22.70;99.90
23347;DHT22;36852;45.466;11.066;2022-10-26T17:46:12;22.60;99.90
23347;DHT22;36852;45.466;11.066;2022-10-26T17:48:40;22.60;99.90
23347;DHT22;36852;45.466;11.066;2022-10-26T17:51:22;22.50;99.90
23347;DHT22;36852;45.466;11.066;2022-10-26T17:53:50;22.40;99.90
23347;DHT22;36852;45.466;11.066;2022-10-26T17:56:21;22.40;99.90
23347;DHT22;36852;45.466;11.066;2022-10-26T17:58:51;22.40;99.90
23347;DHT22;36852;45.466;11.066;2022-10-26T18:01:19;22.40;99.90
23347;DHT22;36852;45.466;11.066;2022-10-26T18:03:47;22.30;99.90
23347;DHT22;36852;45.466;11.066;2022-10-26T18:06:16;22.30;99.90
23347;DHT22;36852;45.466;11.066;2022-10-26T18:08:44;22.30;99.90
23347;DHT22;36852;45.466;11.066;2022-10-26T18:11:14;22.30;99.90